Fortunate — 3FLG6 — position and weather

sailwx.info

Track history (hours):
 
Tides and Currents Weather Stations Pressure Air Temp Water Temp Dewpoint Dewpoint Depression Visibility Wind Speed Wind Dir Waves Ship Positions

Fortunate

Last reported at 2016-Jul-28 13:34 UTC. Time now 2016-Jul-28 14:36 UTC.
Position N 51°60' E 003°53'.

Length 275 m; draft 10.6 m.

Type: Ship (hazmat cat A). MMSI: 356708000.

Date/timePositionNaut miles runAvg speedWind from/ knotsBaromVisibWave heightAir tempDewpointWater temp
2016-Jul-28 13:34N 51°60' E 003°53'7 6.5
2016-Jul-28 12:34N 51°58' E 003°43'3 2.0
2016-Jul-28 11:11N 51°56' E 003°46'0 0.4
2016-Jul-28 10:32N 51°56' E 003°46'4 4.5
2016-Jul-28 09:34N 51°58' E 003°39'52 7.4
2016-Jul-28 02:33N 51°54' E 002°15'9 8.7
2016-Jul-28 01:33N 51°51' E 002°02'10 9.6
2016-Jul-28 00:33N 51°49' E 001°47'1010.3
2016-Jul-27 23:34N 51°55' E 001°34'1010.0
2016-Jul-27 22:33N 51°58' E 001°18'0 0.0
2016-Jul-27 21:33N 51°58' E 001°18'0 0.0
2016-Jul-27 20:33N 51°58' E 001°18'0 0.0
2016-Jul-27 19:33N 51°58' E 001°18'0 0.0
2016-Jul-27 18:33N 51°58' E 001°18'0 0.0
2016-Jul-27 17:33N 51°58' E 001°18'0 0.0
2016-Jul-27 16:33N 51°58' E 001°18'0 0.0
2016-Jul-27 15:33N 51°58' E 001°18'0 0.0
2016-Jul-27 14:33N 51°58' E 001°18'0 0.0
2016-Jul-27 13:33N 51°58' E 001°18'0 0.0
2016-Jul-27 12:33N 51°58' E 001°18'0 0.0
2016-Jul-27 11:33N 51°58' E 001°18'0 0.0
2016-Jul-27 10:33N 51°58' E 001°18'0 0.0
2016-Jul-27 09:30N 51°58' E 001°18'0 0.0
2016-Jul-27 08:33N 51°58' E 001°18'0 0.0
2016-Jul-27 07:33N 51°58' E 001°18'0 0.0
2016-Jul-27 06:33N 51°58' E 001°18'0 0.0
2016-Jul-27 05:33N 51°58' E 001°18'0 0.0
2016-Jul-27 04:33N 51°58' E 001°18'0 0.0
2016-Jul-27 03:33N 51°58' E 001°18'0 0.0
2016-Jul-27 02:33N 51°58' E 001°18'0 0.0
2016-Jul-27 01:33N 51°58' E 001°18'0 0.0
2016-Jul-27 00:33N 51°58' E 001°18'0 0.0
2016-Jul-26 23:33N 51°58' E 001°18'0 0.0
2016-Jul-26 22:33N 51°58' E 001°18'4 4.0
2016-Jul-26 21:33N 51°56' E 001°24'1211.5
2016-Jul-26 20:33N 51°52' E 001°41'5 4.7
2016-Jul-26 19:34N 51°50' E 001°48'1413.6
2016-Jul-26 18:33N 51°37' E 001°51'1515.4
2016-Jul-26 17:33N 51°23' E 002°02'1615.7
2016-Jul-26 16:33N 51°11' E 001°46'1717.1
2016-Jul-26 15:33N 50°58' E 001°29'1716.4
2016-Jul-26 14:32N 50°42' E 001°19'3616.6
2016-Jul-26 12:23N 50°26' E 000°29'1517.5
2016-Jul-26 11:33N 50°22' E 000°07'1817.6
2016-Jul-26 10:33N 50°18' W 000°20'1818.3
2016-Jul-26 09:33N 50°13' W 000°47'4016.9
2016-Jul-26 07:11N 50°02' W 001°47'1015.3
2016-Jul-26 06:32N 49°59' W 002°02'1414.1
2016-Jul-26 05:32N 49°55' W 002°23'1514.8
2016-Jul-26 04:33N 49°51' W 002°45'1615.7
2016-Jul-26 03:33N 49°45' W 003°07'1716.2
2016-Jul-26 02:29N 49°36' W 003°30'3316.4
2016-Jul-26 00:29N 49°18' W 004°12'1516.7
2016-Jul-25 23:33N 49°11' W 004°33'1717.0
2016-Jul-25 22:33N 49°03' W 004°56'1817.6
2016-Jul-25 21:33N 48°54' W 005°19'60417.8
2016-Jul-24 11:33N 39°22' W 009°52'1818.4
2016-Jul-24 10:33N 39°04' W 009°52'1818.3
2016-Jul-24 09:33N 38°46' W 009°51'1918.9
2016-Jul-24 08:33N 38°28' W 009°45'1919.1
2016-Jul-24 07:33N 38°09' W 009°41'1919.3
2016-Jul-24 06:34N 37°50' W 009°36'1919.3
2016-Jul-24 05:33N 37°31' W 009°31'1918.8
2016-Jul-24 04:33N 37°13' W 009°26'1919.3
2016-Jul-24 03:33N 36°54' W 009°20'1918.6
2016-Jul-24 02:33N 36°43' W 009°01'1919.5
2016-Jul-24 01:33N 36°36' W 008°38'2019.6
2016-Jul-24 00:33N 36°30' W 008°15'2019.5
2016-Jul-23 23:33N 36°24' W 007°52'11618.2
2016-Jul-23 17:11N 35°59' W 005°32'1117.6
2016-Jul-23 16:33N 36°02' W 005°19'12918.5
2016-Jul-23 09:33N 36°22' W 002°41'1919.1
2016-Jul-23 08:33N 36°25' W 002°17'7819.6
2016-Jul-23 04:33N 37°15' W 001°02'2019.8
2016-Jul-23 03:33N 37°28' W 000°43'2319.5
2016-Jul-23 02:23N 37°45' W 000°25'1619.8
2016-Jul-23 01:33N 37°59' W 000°14'8215.3
2016-Jul-22 20:12N 39°21' W 000°11'812.4
2016-Jul-22 19:33N 39°26' W 000°19'0 0.1
2016-Jul-22 16:33N 39°26' W 000°19'0 0.0
2016-Jul-22 15:33N 39°26' W 000°19'0 0.0
2016-Jul-22 14:33N 39°26' W 000°19'0 0.0
2016-Jul-22 13:28N 39°26' W 000°19'0 0.0
2016-Jul-22 12:31N 39°26' W 000°19'0 0.0
2016-Jul-22 11:28N 39°26' W 000°19'0 0.0
2016-Jul-22 10:22N 39°26' W 000°19'0 0.0
2016-Jul-22 09:28N 39°26' W 000°19'0 0.0
2016-Jul-22 08:28N 39°26' W 000°19'0 0.0
2016-Jul-22 07:28N 39°26' W 000°19'0 0.0
2016-Jul-22 04:33N 39°26' W 000°19'5 5.0
2016-Jul-22 03:33N 39°24' W 000°13'4112.4
2016-Jul-22 00:14N 39°19' E 000°40'1115.4
2016-Jul-21 23:33N 39°17' E 000°53'1515.3
2016-Jul-21 22:33N 39°15' E 001°13'1515.1
2016-Jul-21 21:33N 39°13' E 001°32'1514.7
2016-Jul-21 20:33N 39°11' E 001°51'1514.9
2016-Jul-21 19:33N 39°09' E 002°10'1514.9
2016-Jul-21 18:33N 39°07' E 002°29'1515.1
2016-Jul-21 17:33N 39°05' E 002°48'1514.9
2016-Jul-21 16:34N 39°03' E 003°07'1515.0
2016-Jul-21 15:33N 39°00' E 003°26'1515.2
2016-Jul-21 14:33N 38°58' E 003°46'1615.5
2016-Jul-21 13:33N 38°57' E 004°05'21618.0
2016-Jul-21 01:33N 38°39' E 008°41'1818.0
2016-Jul-21 00:33N 38°41' E 009°04'1918.9
2016-Jul-20 23:33N 38°50' E 009°26'1918.8
2016-Jul-20 22:33N 38°58' E 009°47'9118.2
2016-Jul-20 17:33N 39°39' E 011°32'1817.0
2016-Jul-20 16:30N 39°47' E 011°53'1916.9
2016-Jul-20 15:22N 39°56' E 012°14'1417.0
2016-Jul-20 14:33N 40°03' E 012°31'1717.0
2016-Jul-20 13:33N 40°11' E 012°50'1716.9
2016-Jul-20 12:33N 40°18' E 013°10'1817.2
2016-Jul-20 11:32N 40°26' E 013°31'1717.2
2016-Jul-20 10:33N 40°34' E 013°50'1717.1
2016-Jul-20 09:33N 40°43' E 014°09'9 0.4
2016-Jul-19 08:08N 40°50' E 014°17'0 0.0
2016-Jul-19 07:32N 40°50' E 014°17'0 0.0
2016-Jul-18 23:23N 40°50' E 014°17'2 2.4
2016-Jul-18 22:33N 40°48' E 014°18'2 1.7
2016-Jul-18 21:20N 40°49' E 014°15'0 0.2
2016-Jul-18 20:26N 40°49' E 014°15'0 0.1
2016-Jul-18 19:32N 40°49' E 014°15'0 0.1
2016-Jul-18 18:32N 40°49' E 014°15'0 0.0
2016-Jul-18 17:17N 40°49' E 014°15'0 0.0
2016-Jul-18 15:14N 40°49' E 014°15'2 3.6
2016-Jul-18 14:33N 40°47' E 014°15'  
Track history (hours):
 
Tides and Currents Weather Stations Pressure Air Temp Water Temp Dewpoint Dewpoint Depression Visibility Wind Speed Wind Dir Waves Ship Positions

Fortunate

Last reported at 2016-Jul-28 13:34 UTC. Time now 2016-Jul-28 14:36 UTC.
Position N 51°60' E 003°53'.

Length 275 m; draft 10.6 m.

Type: Ship (hazmat cat A). MMSI: 356708000.

Date/timePositionNaut miles runAvg speedWind from/ knotsBaromVisibWave heightAir tempDewpointWater temp
2016-Jul-28 13:34N 51°60' E 003°53'7 6.5
2016-Jul-28 12:34N 51°58' E 003°43'3 2.0
2016-Jul-28 11:11N 51°56' E 003°46'0 0.4
2016-Jul-28 10:32N 51°56' E 003°46'4 4.5
2016-Jul-28 09:34N 51°58' E 003°39'52 7.4
2016-Jul-28 02:33N 51°54' E 002°15'9 8.7
2016-Jul-28 01:33N 51°51' E 002°02'10 9.6
2016-Jul-28 00:33N 51°49' E 001°47'1010.3
2016-Jul-27 23:34N 51°55' E 001°34'1010.0
2016-Jul-27 22:33N 51°58' E 001°18'0 0.0
2016-Jul-27 21:33N 51°58' E 001°18'0 0.0
2016-Jul-27 20:33N 51°58' E 001°18'0 0.0
2016-Jul-27 19:33N 51°58' E 001°18'0 0.0
2016-Jul-27 18:33N 51°58' E 001°18'0 0.0
2016-Jul-27 17:33N 51°58' E 001°18'0 0.0
2016-Jul-27 16:33N 51°58' E 001°18'0 0.0
2016-Jul-27 15:33N 51°58' E 001°18'0 0.0
2016-Jul-27 14:33N 51°58' E 001°18'0 0.0
2016-Jul-27 13:33N 51°58' E 001°18'0 0.0
2016-Jul-27 12:33N 51°58' E 001°18'0 0.0
2016-Jul-27 11:33N 51°58' E 001°18'0 0.0
2016-Jul-27 10:33N 51°58' E 001°18'0 0.0
2016-Jul-27 09:30N 51°58' E 001°18'0 0.0
2016-Jul-27 08:33N 51°58' E 001°18'0 0.0
2016-Jul-27 07:33N 51°58' E 001°18'0 0.0
2016-Jul-27 06:33N 51°58' E 001°18'0 0.0
2016-Jul-27 05:33N 51°58' E 001°18'0 0.0
2016-Jul-27 04:33N 51°58' E 001°18'0 0.0
2016-Jul-27 03:33N 51°58' E 001°18'0 0.0
2016-Jul-27 02:33N 51°58' E 001°18'0 0.0
2016-Jul-27 01:33N 51°58' E 001°18'0 0.0
2016-Jul-27 00:33N 51°58' E 001°18'0 0.0
2016-Jul-26 23:33N 51°58' E 001°18'0 0.0
2016-Jul-26 22:33N 51°58' E 001°18'4 4.0
2016-Jul-26 21:33N 51°56' E 001°24'1211.5
2016-Jul-26 20:33N 51°52' E 001°41'5 4.7
2016-Jul-26 19:34N 51°50' E 001°48'1413.6
2016-Jul-26 18:33N 51°37' E 001°51'1515.4
2016-Jul-26 17:33N 51°23' E 002°02'1615.7
2016-Jul-26 16:33N 51°11' E 001°46'1717.1
2016-Jul-26 15:33N 50°58' E 001°29'1716.4
2016-Jul-26 14:32N 50°42' E 001°19'3616.6
2016-Jul-26 12:23N 50°26' E 000°29'1517.5
2016-Jul-26 11:33N 50°22' E 000°07'1817.6
2016-Jul-26 10:33N 50°18' W 000°20'1818.3
2016-Jul-26 09:33N 50°13' W 000°47'4016.9
2016-Jul-26 07:11N 50°02' W 001°47'1015.3
2016-Jul-26 06:32N 49°59' W 002°02'1414.1
2016-Jul-26 05:32N 49°55' W 002°23'1514.8
2016-Jul-26 04:33N 49°51' W 002°45'1615.7
2016-Jul-26 03:33N 49°45' W 003°07'1716.2
2016-Jul-26 02:29N 49°36' W 003°30'3316.4
2016-Jul-26 00:29N 49°18' W 004°12'1516.7
2016-Jul-25 23:33N 49°11' W 004°33'1717.0
2016-Jul-25 22:33N 49°03' W 004°56'1817.6
2016-Jul-25 21:33N 48°54' W 005°19'60417.8
2016-Jul-24 11:33N 39°22' W 009°52'1818.4
2016-Jul-24 10:33N 39°04' W 009°52'1818.3
2016-Jul-24 09:33N 38°46' W 009°51'1918.9
2016-Jul-24 08:33N 38°28' W 009°45'1919.1
2016-Jul-24 07:33N 38°09' W 009°41'1919.3
2016-Jul-24 06:34N 37°50' W 009°36'1919.3
2016-Jul-24 05:33N 37°31' W 009°31'1918.8
2016-Jul-24 04:33N 37°13' W 009°26'1919.3
2016-Jul-24 03:33N 36°54' W 009°20'1918.6
2016-Jul-24 02:33N 36°43' W 009°01'1919.5
2016-Jul-24 01:33N 36°36' W 008°38'2019.6
2016-Jul-24 00:33N 36°30' W 008°15'2019.5
2016-Jul-23 23:33N 36°24' W 007°52'11618.2
2016-Jul-23 17:11N 35°59' W 005°32'1117.6
2016-Jul-23 16:33N 36°02' W 005°19'12918.5
2016-Jul-23 09:33N 36°22' W 002°41'1919.1
2016-Jul-23 08:33N 36°25' W 002°17'7819.6
2016-Jul-23 04:33N 37°15' W 001°02'2019.8
2016-Jul-23 03:33N 37°28' W 000°43'2319.5
2016-Jul-23 02:23N 37°45' W 000°25'1619.8
2016-Jul-23 01:33N 37°59' W 000°14'8215.3
2016-Jul-22 20:12N 39°21' W 000°11'812.4
2016-Jul-22 19:33N 39°26' W 000°19'0 0.1
2016-Jul-22 16:33N 39°26' W 000°19'0 0.0
2016-Jul-22 15:33N 39°26' W 000°19'0 0.0
2016-Jul-22 14:33N 39°26' W 000°19'0 0.0
2016-Jul-22 13:28N 39°26' W 000°19'0 0.0
2016-Jul-22 12:31N 39°26' W 000°19'0 0.0
2016-Jul-22 11:28N 39°26' W 000°19'0 0.0
2016-Jul-22 10:22N 39°26' W 000°19'0 0.0
2016-Jul-22 09:28N 39°26' W 000°19'0 0.0
2016-Jul-22 08:28N 39°26' W 000°19'0 0.0
2016-Jul-22 07:28N 39°26' W 000°19'0 0.0
2016-Jul-22 04:33N 39°26' W 000°19'5 5.0
2016-Jul-22 03:33N 39°24' W 000°13'4112.4
2016-Jul-22 00:14N 39°19' E 000°40'1115.4
2016-Jul-21 23:33N 39°17' E 000°53'1515.3
2016-Jul-21 22:33N 39°15' E 001°13'1515.1
2016-Jul-21 21:33N 39°13' E 001°32'1514.7
2016-Jul-21 20:33N 39°11' E 001°51'1514.9
2016-Jul-21 19:33N 39°09' E 002°10'1514.9
2016-Jul-21 18:33N 39°07' E 002°29'1515.1
2016-Jul-21 17:33N 39°05' E 002°48'1514.9
2016-Jul-21 16:34N 39°03' E 003°07'1515.0
2016-Jul-21 15:33N 39°00' E 003°26'1515.2
2016-Jul-21 14:33N 38°58' E 003°46'1615.5
2016-Jul-21 13:33N 38°57' E 004°05'21618.0
2016-Jul-21 01:33N 38°39' E 008°41'1818.0
2016-Jul-21 00:33N 38°41' E 009°04'1918.9
2016-Jul-20 23:33N 38°50' E 009°26'1918.8
2016-Jul-20 22:33N 38°58' E 009°47'9118.2
2016-Jul-20 17:33N 39°39' E 011°32'1817.0
2016-Jul-20 16:30N 39°47' E 011°53'1916.9
2016-Jul-20 15:22N 39°56' E 012°14'1417.0
2016-Jul-20 14:33N 40°03' E 012°31'1717.0
2016-Jul-20 13:33N 40°11' E 012°50'1716.9
2016-Jul-20 12:33N 40°18' E 013°10'1817.2
2016-Jul-20 11:32N 40°26' E 013°31'1717.2
2016-Jul-20 10:33N 40°34' E 013°50'1717.1
2016-Jul-20 09:33N 40°43' E 014°09'9 0.4
2016-Jul-19 08:08N 40°50' E 014°17'0 0.0
2016-Jul-19 07:32N 40°50' E 014°17'0 0.0
2016-Jul-18 23:23N 40°50' E 014°17'2 2.4
2016-Jul-18 22:33N 40°48' E 014°18'2 1.7
2016-Jul-18 21:20N 40°49' E 014°15'0 0.2
2016-Jul-18 20:26N 40°49' E 014°15'0 0.1
2016-Jul-18 19:32N 40°49' E 014°15'0 0.1
2016-Jul-18 18:32N 40°49' E 014°15'0 0.0
2016-Jul-18 17:17N 40°49' E 014°15'0 0.0
2016-Jul-18 15:14N 40°49' E 014°15'2 3.6
2016-Jul-18 14:33N 40°47' E 014°15'  

Dump ship's entire track history